createdAt,value
2022-08-03T00:00:07.165Z,35.50
2022-08-03T00:02:41.368Z,35.44
2022-08-03T00:05:08.966Z,35.62
2022-08-03T00:07:36.162Z,35.46
2022-08-03T00:10:03.503Z,35.53
2022-08-03T00:12:30.714Z,35.76
2022-08-03T00:15:00.854Z,35.81
2022-08-03T00:17:28.132Z,35.82
2022-08-03T00:19:55.363Z,35.57
2022-08-03T00:22:22.736Z,35.96
2022-08-03T00:24:51.180Z,36.51
2022-08-03T00:27:18.420Z,36.19
2022-08-03T00:29:59.632Z,35.76
2022-08-03T00:32:27.630Z,35.69
2022-08-03T00:34:57.753Z,35.76
2022-08-03T00:37:40.695Z,35.61
2022-08-03T00:40:13.391Z,35.80
2022-08-03T00:43:07.736Z,35.56
2022-08-03T00:45:39.956Z,35.83
2022-08-03T00:48:32.903Z,36.05
2022-08-03T00:50:58.438Z,35.92
2022-08-03T00:53:26.429Z,36.17
2022-08-03T00:55:53.688Z,36.02
2022-08-03T00:58:21.302Z,36.63
2022-08-03T01:00:48.739Z,36.24
2022-08-03T01:03:16.215Z,36.06
2022-08-03T01:05:55.669Z,35.57
2022-08-03T01:08:39.705Z,36.16
2022-08-03T01:11:24.923Z,36.44
2022-08-03T01:14:18.998Z,36.11
2022-08-03T01:17:05.595Z,36.47
2022-08-03T01:19:45.877Z,36.84
2022-08-03T01:22:40.480Z,36.60
2022-08-03T01:25:24.262Z,37.10
2022-08-03T01:27:57.559Z,37.05
2022-08-03T01:30:31.312Z,37.35
2022-08-03T01:33:06.599Z,37.57
2022-08-03T01:35:45.512Z,37.43
2022-08-03T01:38:18.474Z,37.53
2022-08-03T01:40:48.107Z,37.80
2022-08-03T01:43:55.138Z,37.72
2022-08-03T01:46:09.217Z,37.59
2022-08-03T01:48:40.114Z,37.69
2022-08-03T01:51:09.802Z,37.92
2022-08-03T01:53:43.021Z,38.13
2022-08-03T01:56:10.531Z,38.68
2022-08-03T01:58:40.107Z,38.05
2022-08-03T02:01:09.360Z,37.98
2022-08-03T02:03:59.790Z,38.12
2022-08-03T02:07:00.055Z,38.17
2022-08-03T02:09:24.376Z,38.43
2022-08-03T02:11:52.566Z,38.38
2022-08-03T02:14:21.530Z,38.17
2022-08-03T02:16:50.043Z,38.37
2022-08-03T02:19:19.368Z,38.64
2022-08-03T02:21:56.721Z,38.20
2022-08-03T02:24:29.741Z,38.63
2022-08-03T02:26:58.526Z,38.38
2022-08-03T02:29:39.887Z,38.52
2022-08-03T02:32:17.099Z,38.60
2022-08-03T02:34:49.488Z,38.93
2022-08-03T02:37:20.423Z,39.98
2022-08-03T02:39:49.496Z,39.54
2022-08-03T02:42:21.799Z,39.24
2022-08-03T02:44:52.385Z,39.06
2022-08-03T02:47:21.674Z,39.67
2022-08-03T02:49:52.366Z,38.97
2022-08-03T02:52:26.290Z,38.91
2022-08-03T02:54:57.233Z,38.89
2022-08-03T02:57:27.634Z,39.44
2022-08-03T03:00:00.263Z,39.13
2022-08-03T03:02:30.908Z,39.49
2022-08-03T03:05:54.653Z,39.66
2022-08-03T03:07:51.859Z,40.15
2022-08-03T03:10:23.432Z,40.86
2022-08-03T03:12:58.734Z,41.73
2022-08-03T03:15:27.536Z,41.33
2022-08-03T03:17:57.365Z,41.78
2022-08-03T03:20:28.895Z,41.47
2022-08-03T03:23:02.966Z,42.23
2022-08-03T03:25:34.427Z,42.19
2022-08-03T03:28:06.396Z,42.41
2022-08-03T03:30:36.540Z,42.04
2022-08-03T03:33:06.296Z,42.55
2022-08-03T03:35:43.668Z,42.50
2022-08-03T03:38:10.941Z,42.15
2022-08-03T03:40:41.399Z,42.29
2022-08-03T03:43:10.119Z,42.36
2022-08-03T03:45:38.543Z,42.46
2022-08-03T03:48:06.585Z,42.54
2022-08-03T03:50:38.130Z,41.90
2022-08-03T03:53:09.230Z,42.36
2022-08-03T03:56:01.550Z,42.05
2022-08-03T03:58:28.135Z,41.88
2022-08-03T04:01:04.276Z,42.09
2022-08-03T04:03:39.419Z,42.19
2022-08-03T04:06:28.855Z,41.75
2022-08-03T04:09:00.829Z,42.40
2022-08-03T04:11:33.526Z,41.96
2022-08-03T04:14:10.070Z,41.82
2022-08-03T04:16:46.468Z,41.70
2022-08-03T04:19:47.837Z,42.23
2022-08-03T04:22:33.135Z,41.86
2022-08-03T04:25:24.543Z,41.13
2022-08-03T04:28:08.232Z,41.13
2022-08-03T04:31:11.026Z,40.90
2022-08-03T04:33:49.247Z,40.98
2022-08-03T04:36:36.570Z,41.34
2022-08-03T04:39:33.021Z,41.01
2022-08-03T04:42:38.055Z,41.02
2022-08-03T04:45:34.231Z,41.17
2022-08-03T04:48:12.961Z,41.47
2022-08-03T04:50:44.040Z,41.16
2022-08-03T04:53:11.886Z,41.23
2022-08-03T04:55:40.565Z,40.86
2022-08-03T04:58:10.808Z,40.98
2022-08-03T05:00:40.370Z,41.15
2022-08-03T05:03:20.454Z,40.95
2022-08-03T05:06:01.512Z,41.25
2022-08-03T05:08:36.803Z,40.69
2022-08-03T05:11:17.305Z,41.14
2022-08-03T05:13:46.248Z,41.42
2022-08-03T05:16:14.826Z,40.91
2022-08-03T05:18:45.742Z,41.07
2022-08-03T05:21:15.903Z,41.27
2022-08-03T05:23:47.161Z,41.05
2022-08-03T05:26:15.054Z,40.61
2022-08-03T05:28:49.981Z,40.93
2022-08-03T05:31:19.024Z,40.12
2022-08-03T05:33:49.561Z,40.46
2022-08-03T05:36:18.436Z,40.50
2022-08-03T05:38:47.430Z,40.84
2022-08-03T05:41:36.646Z,40.38
2022-08-03T05:44:15.579Z,40.45
2022-08-03T05:46:54.441Z,40.38
2022-08-03T05:49:24.299Z,40.43
2022-08-03T05:52:14.782Z,39.83
2022-08-03T05:55:00.592Z,39.38
2022-08-03T05:57:38.336Z,39.56
2022-08-03T06:00:21.347Z,39.37
2022-08-03T06:02:57.699Z,39.35
2022-08-03T06:05:37.331Z,39.31
2022-08-03T06:08:22.559Z,39.16
2022-08-03T06:11:06.724Z,39.12
2022-08-03T06:13:40.159Z,39.35
2022-08-03T06:16:16.502Z,39.60
2022-08-03T06:19:01.069Z,39.62
2022-08-03T06:21:37.728Z,39.50
2022-08-03T06:24:09.765Z,39.32
2022-08-03T06:26:45.988Z,39.47
2022-08-03T06:29:32.066Z,39.56
2022-08-03T06:32:05.680Z,40.06
2022-08-03T06:34:59.624Z,40.23
2022-08-03T06:37:58.496Z,40.22
2022-08-03T06:40:40.316Z,40.79
2022-08-03T06:43:23.258Z,40.52
2022-08-03T06:46:20.965Z,40.45
2022-08-03T06:49:10.090Z,40.61
2022-08-03T06:52:03.603Z,39.88
2022-08-03T06:54:53.090Z,39.99
2022-08-03T06:57:40.223Z,40.18
2022-08-03T07:00:17.470Z,40.08
2022-08-03T07:02:58.492Z,40.15
2022-08-03T07:05:49.858Z,40.16
2022-08-03T07:08:33.614Z,39.76
2022-08-03T07:11:19.091Z,39.62
2022-08-03T07:14:08.103Z,39.98
2022-08-03T07:16:53.618Z,39.51
2022-08-03T07:19:21.146Z,39.75
2022-08-03T07:22:00.268Z,39.88
2022-08-03T07:25:02.051Z,39.70
2022-08-03T07:27:58.060Z,39.36
2022-08-03T07:30:40.409Z,39.59
2022-08-03T07:33:23.659Z,38.18
2022-08-03T07:36:09.567Z,38.58
2022-08-03T07:38:47.404Z,38.36
2022-08-03T07:41:27.238Z,38.48
2022-08-03T07:44:14.261Z,38.22
2022-08-03T07:47:07.408Z,37.39
2022-08-03T07:49:44.881Z,34.44
2022-08-03T07:52:47.120Z,33.41
2022-08-03T07:55:34.319Z,33.39
2022-08-03T07:58:21.964Z,31.84
2022-08-03T08:01:02.772Z,32.47
2022-08-03T08:03:53.269Z,31.91
2022-08-03T08:06:36.457Z,32.43
2022-08-03T08:09:13.558Z,32.78
2022-08-03T08:11:55.211Z,32.36
2022-08-03T08:14:39.501Z,32.28
2022-08-03T08:17:22.140Z,32.24
2022-08-03T08:19:58.334Z,31.60
2022-08-03T08:22:41.645Z,31.81
2022-08-03T08:25:15.043Z,32.67
2022-08-03T08:28:30.387Z,32.70
2022-08-03T08:31:15.473Z,32.64
2022-08-03T08:34:06.684Z,32.07
2022-08-03T08:37:04.719Z,32.53
2022-08-03T08:40:03.534Z,31.74
2022-08-03T08:42:58.915Z,31.75
2022-08-03T08:45:31.694Z,32.25
2022-08-03T08:48:34.767Z,31.67
2022-08-03T08:51:24.564Z,34.63
2022-08-03T08:54:33.808Z,35.64
2022-08-03T08:57:26.842Z,36.61
2022-08-03T09:00:15.373Z,37.75
2022-08-03T09:02:50.231Z,38.23
2022-08-03T09:05:41.572Z,38.04
2022-08-03T09:08:37.744Z,39.72
2022-08-03T09:11:21.672Z,39.65
2022-08-03T09:14:36.857Z,38.89
2022-08-03T09:17:19.518Z,40.54
2022-08-03T09:20:24.033Z,40.30
2022-08-03T09:23:26.248Z,41.50
2022-08-03T09:26:05.382Z,41.95
2022-08-03T09:28:59.917Z,41.73
2022-08-03T09:31:45.584Z,41.49
2022-08-03T09:34:29.035Z,41.90
2022-08-03T09:37:05.615Z,42.40
2022-08-03T09:39:46.137Z,43.00
2022-08-03T09:42:26.447Z,43.50
2022-08-03T09:45:28.206Z,43.79
2022-08-03T09:48:34.866Z,45.01
2022-08-03T09:51:32.843Z,45.45
2022-08-03T09:54:20.580Z,45.71
2022-08-03T09:57:03.007Z,46.01
2022-08-03T09:59:45.195Z,46.01
2022-08-03T10:02:28.832Z,46.47
2022-08-03T10:05:17.512Z,46.01
2022-08-03T10:07:59.888Z,46.24
2022-08-03T10:10:46.073Z,46.61
2022-08-03T10:13:31.972Z,45.95
2022-08-03T10:16:23.006Z,45.30
2022-08-03T10:19:10.069Z,47.36
2022-08-03T10:22:27.497Z,45.64
2022-08-03T10:25:13.706Z,45.13
2022-08-03T10:27:57.273Z,46.67
2022-08-03T10:30:48.255Z,47.99
2022-08-03T10:33:49.538Z,47.95
2022-08-03T10:36:42.217Z,46.96
2022-08-03T10:39:22.654Z,46.66
2022-08-03T10:42:03.776Z,46.55
2022-08-03T10:44:53.945Z,47.39
2022-08-03T10:47:30.792Z,45.96
2022-08-03T10:50:06.032Z,46.99
2022-08-03T10:52:56.603Z,44.50
2022-08-03T10:55:59.171Z,45.78
2022-08-03T10:59:10.569Z,44.77
2022-08-03T11:02:10.914Z,43.49
2022-08-03T11:04:53.889Z,44.78
2022-08-03T11:07:32.380Z,44.04
2022-08-03T11:10:35.483Z,43.71
2022-08-03T11:13:27.318Z,44.20
2022-08-03T11:16:03.938Z,43.59
2022-08-03T11:18:59.151Z,43.96
2022-08-03T11:21:55.748Z,42.52
2022-08-03T11:24:41.172Z,42.19
2022-08-03T11:27:35.002Z,39.57
2022-08-03T11:30:30.057Z,40.60
2022-08-03T11:33:06.019Z,40.67
2022-08-03T11:36:10.587Z,39.75
2022-08-03T11:39:23.865Z,39.87
2022-08-03T11:42:30.518Z,39.72
2022-08-03T11:45:20.450Z,38.63
2022-08-03T11:48:04.026Z,38.73
2022-08-03T11:50:58.175Z,40.17
2022-08-03T11:53:34.308Z,41.57
2022-08-03T11:56:24.830Z,40.48
2022-08-03T11:59:20.507Z,41.52
2022-08-03T12:01:54.834Z,42.07
2022-08-03T12:04:50.563Z,40.92
2022-08-03T12:08:03.905Z,41.45
2022-08-03T12:10:40.625Z,41.43
2022-08-03T12:14:26.937Z,42.53
2022-08-03T12:16:39.572Z,42.41
2022-08-03T12:19:21.647Z,41.46
2022-08-03T12:22:04.829Z,41.27
2022-08-03T12:24:59.426Z,41.70
2022-08-03T12:27:53.642Z,43.23
2022-08-03T12:30:41.539Z,41.38
2022-08-03T12:34:04.925Z,43.07
2022-08-03T12:37:22.221Z,43.46
2022-08-03T12:40:09.595Z,41.67
2022-08-03T12:42:44.908Z,42.57
2022-08-03T12:45:48.613Z,41.71
2022-08-03T12:48:27.886Z,42.38
2022-08-03T12:51:32.226Z,42.26
2022-08-03T12:54:13.150Z,43.58
2022-08-03T12:57:01.455Z,42.63
2022-08-03T12:59:56.427Z,42.95
2022-08-03T13:02:32.088Z,42.33
2022-08-03T13:05:17.909Z,42.64
2022-08-03T13:07:58.474Z,43.46
2022-08-03T13:10:47.481Z,41.82
2022-08-03T13:13:47.293Z,42.12
2022-08-03T13:16:22.483Z,41.97
2022-08-03T13:19:18.103Z,43.12
2022-08-03T13:22:08.638Z,43.44
2022-08-03T13:24:44.997Z,42.08
2022-08-03T13:31:01.069Z,41.50
2022-08-03T13:33:37.405Z,42.97
2022-08-03T13:36:22.300Z,41.47
2022-08-03T13:39:05.852Z,42.19
2022-08-03T13:41:53.775Z,42.55
2022-08-03T13:44:29.725Z,42.96
2022-08-03T13:47:15.122Z,43.96
2022-08-03T13:50:00.026Z,43.79
2022-08-03T13:52:43.066Z,43.23
2022-08-03T13:55:16.715Z,43.72
2022-08-03T13:58:07.298Z,42.90
2022-08-03T14:00:47.227Z,43.23
2022-08-03T14:03:33.846Z,42.56
2022-08-03T14:06:09.698Z,40.80
2022-08-03T14:08:49.330Z,40.04
2022-08-03T14:11:23.090Z,42.76
2022-08-03T14:14:46.202Z,42.65
2022-08-03T14:17:49.592Z,43.30
2022-08-03T14:20:38.835Z,43.10
2022-08-03T14:23:34.066Z,44.66
2022-08-03T14:26:08.494Z,44.77
2022-08-03T14:28:54.692Z,44.32
2022-08-03T14:32:10.388Z,44.06
2022-08-03T14:34:36.392Z,45.12
2022-08-03T14:37:08.380Z,44.43
2022-08-03T14:42:33.885Z,43.11
2022-08-03T14:45:19.787Z,40.10
2022-08-03T14:50:31.973Z,40.74
2022-08-03T14:51:02.819Z,40.30
2022-08-03T14:53:55.535Z,38.81
2022-08-03T14:56:23.827Z,39.13
2022-08-03T14:59:09.600Z,36.53
2022-08-03T15:02:03.368Z,38.84
2022-08-03T15:04:46.682Z,38.36
2022-08-03T15:07:23.665Z,39.63
2022-08-03T15:10:27.096Z,39.07
2022-08-03T15:13:18.679Z,40.25
2022-08-03T15:16:08.082Z,39.84
2022-08-03T15:18:58.075Z,41.49
2022-08-03T15:21:46.637Z,40.51
2022-08-03T15:24:29.199Z,38.09
2022-08-03T15:27:10.173Z,41.98
2022-08-03T15:30:04.779Z,40.44
2022-08-03T15:32:59.629Z,40.50
2022-08-03T15:35:34.333Z,41.68
2022-08-03T15:38:12.038Z,42.59
2022-08-03T15:40:51.105Z,39.72
2022-08-03T15:43:34.315Z,40.69
2022-08-03T15:46:29.241Z,39.96
2022-08-03T15:49:00.794Z,41.97
2022-08-03T15:51:42.127Z,40.33
2022-08-03T15:54:34.843Z,40.47
2022-08-03T15:57:10.341Z,40.16
2022-08-03T15:59:56.800Z,40.18
2022-08-03T16:02:44.370Z,39.16
2022-08-03T16:05:40.453Z,39.07
2022-08-03T16:08:29.717Z,37.38
2022-08-03T16:11:14.558Z,37.80
2022-08-03T16:14:12.007Z,36.34
2022-08-03T16:17:01.307Z,35.58
2022-08-03T16:19:35.690Z,35.89
2022-08-03T16:22:11.743Z,36.00
2022-08-03T16:24:45.074Z,35.49
2022-08-03T16:27:58.161Z,35.00
2022-08-03T16:31:00.914Z,34.39
2022-08-03T16:33:44.940Z,34.59
2022-08-03T16:36:24.128Z,34.71
2022-08-03T16:39:08.000Z,35.55
2022-08-03T16:42:00.910Z,36.31
2022-08-03T16:44:36.876Z,36.30
2022-08-03T16:47:22.304Z,36.10
2022-08-03T16:49:56.295Z,35.68
2022-08-03T16:52:42.159Z,35.72
2022-08-03T16:55:48.461Z,36.27
2022-08-03T16:58:44.891Z,35.22
2022-08-03T17:01:21.913Z,36.84
2022-08-03T17:04:06.120Z,39.01
2022-08-03T17:06:48.014Z,37.88
2022-08-03T17:09:38.347Z,37.88
2022-08-03T17:12:12.384Z,37.84
2022-08-03T17:14:53.778Z,38.60
2022-08-03T17:17:53.731Z,37.31
2022-08-03T17:20:37.210Z,37.97
2022-08-03T17:23:34.990Z,38.34
2022-08-03T17:26:22.347Z,37.87
2022-08-03T17:29:00.618Z,37.80
2022-08-03T17:31:54.750Z,37.56
2022-08-03T17:34:29.922Z,37.12
2022-08-03T17:37:50.459Z,37.76
2022-08-03T17:40:17.995Z,37.18
2022-08-03T17:43:00.337Z,37.44
2022-08-03T17:45:52.322Z,37.27
2022-08-03T17:48:25.387Z,35.85
2022-08-03T17:51:06.913Z,35.94
2022-08-03T18:00:42.762Z,34.11
2022-08-03T18:03:57.773Z,33.27
2022-08-03T18:06:56.274Z,32.18
2022-08-03T18:10:03.653Z,32.36
2022-08-03T18:12:54.722Z,32.47
2022-08-03T18:16:02.504Z,32.37
2022-08-03T18:19:09.709Z,33.55
2022-08-03T18:22:11.328Z,33.77
2022-08-03T18:25:07.724Z,34.41
2022-08-03T18:27:49.727Z,34.09
2022-08-03T18:30:30.780Z,35.07
2022-08-03T18:34:17.195Z,34.82
2022-08-03T18:36:30.560Z,35.26
2022-08-03T18:39:27.805Z,35.59
2022-08-03T18:42:10.057Z,36.43
2022-08-03T18:45:14.975Z,36.21
2022-08-03T18:48:39.314Z,37.05
2022-08-03T18:51:43.407Z,36.42
2022-08-03T18:54:46.701Z,36.96
2022-08-03T18:58:17.873Z,36.29
2022-08-03T19:01:58.937Z,36.64
2022-08-03T19:05:04.831Z,36.31
2022-08-03T19:07:58.319Z,37.09
2022-08-03T19:10:57.816Z,36.45
2022-08-03T19:17:21.107Z,36.49
2022-08-03T19:20:07.781Z,36.43
2022-08-03T19:23:08.629Z,35.90
2022-08-03T19:26:29.924Z,36.05
2022-08-03T19:29:58.015Z,35.68
2022-08-03T19:32:42.217Z,35.93
2022-08-03T19:35:54.990Z,35.80
2022-08-03T19:41:59.306Z,36.80
2022-08-03T19:44:52.222Z,36.43
2022-08-03T19:47:48.211Z,37.08
2022-08-03T19:50:24.236Z,37.20
2022-08-03T19:53:12.736Z,37.77
2022-08-03T19:55:52.496Z,37.86
2022-08-03T19:58:42.324Z,38.38
2022-08-03T20:01:19.269Z,38.67
2022-08-03T20:04:00.931Z,37.82
2022-08-03T20:06:40.469Z,37.35
2022-08-03T20:09:31.478Z,36.96
2022-08-03T20:12:28.248Z,35.96
2022-08-03T20:15:33.952Z,35.92
2022-08-03T20:18:23.933Z,34.88
2022-08-03T20:20:54.951Z,34.21
2022-08-03T20:23:38.634Z,33.17
2022-08-03T20:26:51.702Z,33.45
2022-08-03T20:29:42.669Z,32.88
2022-08-03T20:33:19.468Z,32.85
2022-08-03T20:36:02.721Z,33.06
2022-08-03T20:38:43.872Z,33.19
2022-08-03T20:41:20.017Z,33.23
2022-08-03T20:44:05.870Z,32.76
2022-08-03T20:46:53.341Z,33.22
2022-08-03T20:49:46.634Z,32.79
2022-08-03T20:52:19.317Z,32.41
2022-08-03T20:55:12.951Z,32.18
2022-08-03T20:57:53.895Z,32.97
2022-08-03T21:00:27.518Z,32.39
2022-08-03T21:03:12.541Z,32.02
2022-08-03T21:05:58.085Z,32.62
2022-08-03T21:08:50.802Z,33.12
2022-08-03T21:12:55.925Z,34.24
2022-08-03T21:13:08.414Z,37.08
2022-08-03T21:15:03.381Z,33.33
2022-08-03T21:18:11.242Z,32.68
2022-08-03T21:21:17.365Z,32.85
2022-08-03T21:24:23.639Z,32.35
2022-08-03T21:27:30.847Z,33.04
2022-08-03T21:30:26.159Z,32.45
2022-08-03T21:33:34.964Z,32.31
2022-08-03T21:36:15.037Z,32.71
2022-08-03T21:38:57.660Z,32.82
2022-08-03T21:41:33.814Z,32.61
2022-08-03T21:44:09.442Z,33.43
2022-08-03T21:46:51.917Z,33.21
2022-08-03T21:50:04.478Z,32.76
2022-08-03T21:52:42.432Z,32.67
2022-08-03T21:55:20.935Z,33.39
2022-08-03T21:58:09.178Z,33.41
2022-08-03T22:00:44.688Z,33.49
2022-08-03T22:03:52.868Z,34.17
2022-08-03T22:06:57.986Z,34.28
2022-08-03T22:13:19.470Z,34.28
2022-08-03T22:17:00.743Z,34.99
2022-08-03T22:19:54.134Z,35.07
2022-08-03T22:22:55.131Z,35.22
2022-08-03T22:26:18.627Z,35.11
2022-08-03T22:30:07.485Z,35.36
2022-08-03T22:33:14.705Z,35.81
2022-08-03T22:36:04.088Z,35.33
2022-08-03T22:38:54.309Z,35.75
2022-08-03T22:41:58.997Z,36.08
2022-08-03T22:46:07.543Z,35.62
2022-08-03T22:49:06.840Z,35.92
2022-08-03T22:55:37.645Z,36.20
2022-08-03T22:58:30.540Z,36.55
2022-08-03T23:01:23.008Z,36.10
2022-08-03T23:07:36.148Z,36.36
2022-08-03T23:10:23.823Z,35.69
2022-08-03T23:13:15.210Z,35.84
2022-08-03T23:16:07.227Z,35.81
2022-08-03T23:18:47.515Z,35.72
2022-08-03T23:21:53.946Z,35.64
2022-08-03T23:24:29.370Z,35.68
2022-08-03T23:27:14.016Z,35.20
2022-08-03T23:30:09.117Z,35.26
2022-08-03T23:32:54.709Z,35.14
2022-08-03T23:36:29.005Z,35.02
2022-08-03T23:38:57.878Z,34.93
2022-08-03T23:41:36.003Z,34.84
2022-08-03T23:44:13.580Z,35.04
2022-08-03T23:46:50.536Z,35.17
2022-08-03T23:49:23.636Z,35.38
2022-08-03T23:52:25.324Z,35.87
2022-08-03T23:55:08.878Z,36.47
2022-08-03T23:57:52.123Z,36.57
